createdAt,value
2023-03-11T00:00:00.126Z,99012.50
2023-03-11T00:02:27.135Z,99010.98
2023-03-11T00:04:53.981Z,99006.70
2023-03-11T00:07:21.798Z,99006.23
2023-03-11T00:09:48.848Z,99000.64
2023-03-11T00:12:15.997Z,98998.23
2023-03-11T00:14:44.589Z,98999.40
2023-03-11T00:17:13.861Z,98996.98
2023-03-11T00:19:41.960Z,98994.05
2023-03-11T00:22:08.681Z,98989.23
2023-03-11T00:24:35.792Z,98986.83
2023-03-11T00:27:03.509Z,98987.41
2023-03-11T00:29:30.455Z,98983.19
2023-03-11T00:31:57.296Z,98982.52
2023-03-11T00:34:25.267Z,98976.15
2023-03-11T00:36:52.210Z,98967.77
2023-03-11T00:39:19.034Z,98969.30
2023-03-11T00:41:45.897Z,98968.45
2023-03-11T00:44:14.277Z,98964.30
2023-03-11T00:46:41.120Z,98959.67
2023-03-11T00:49:07.925Z,98952.13
2023-03-11T00:51:35.112Z,98950.79
2023-03-11T00:54:04.413Z,98947.66
2023-03-11T00:56:33.106Z,98941.41
2023-03-11T00:59:04.375Z,98932.73
2023-03-11T01:01:32.230Z,98929.33
2023-03-11T01:03:59.363Z,98925.42
2023-03-11T01:06:35.767Z,98916.98
2023-03-11T01:09:06.361Z,98917.97
2023-03-11T01:11:33.443Z,98918.13
2023-03-11T01:14:00.152Z,98917.42
2023-03-11T01:16:26.877Z,98916.45
2023-03-11T01:18:56.908Z,98913.83
2023-03-11T01:21:23.870Z,98911.97
2023-03-11T01:23:50.698Z,98908.66
2023-03-11T01:26:18.058Z,98902.73
2023-03-11T01:28:45.407Z,98898.39
2023-03-11T01:31:12.426Z,98897.61
2023-03-11T01:33:40.132Z,98898.20
2023-03-11T01:36:07.497Z,98899.19
2023-03-11T01:38:34.562Z,98894.84
2023-03-11T01:41:01.772Z,98894.48
2023-03-11T01:43:45.393Z,98886.59
2023-03-11T01:46:22.349Z,98884.07
2023-03-11T01:48:54.966Z,98882.02
2023-03-11T01:51:27.954Z,98880.32
2023-03-11T01:54:03.974Z,98879.05
2023-03-11T01:56:31.473Z,98875.52
2023-03-11T01:58:58.999Z,98874.02
2023-03-11T02:01:25.863Z,98871.83
2023-03-11T02:03:53.946Z,98868.55
2023-03-11T02:06:22.112Z,98866.75
2023-03-11T02:08:48.951Z,98862.16
2023-03-11T02:11:22.344Z,98862.61
2023-03-11T02:13:49.513Z,98859.15
2023-03-11T02:16:17.953Z,98859.39
2023-03-11T02:18:45.151Z,98852.55
2023-03-11T02:21:31.762Z,98854.09
2023-03-11T02:24:16.110Z,98854.96
2023-03-11T02:26:56.062Z,98849.54
2023-03-11T02:29:23.211Z,98849.36
2023-03-11T02:31:50.391Z,98847.56
2023-03-11T02:34:24.006Z,98847.79
2023-03-11T02:36:50.959Z,98847.58
2023-03-11T02:39:49.496Z,98843.54
2023-03-11T02:42:30.166Z,98839.47
2023-03-11T02:45:07.396Z,98839.64
2023-03-11T02:47:34.600Z,98838.45
2023-03-11T02:50:02.158Z,98837.86
2023-03-11T02:52:31.725Z,98840.91
2023-03-11T02:54:58.796Z,98837.24
2023-03-11T02:57:25.758Z,98833.69
2023-03-11T02:59:53.884Z,98827.89
2023-03-11T03:02:20.571Z,98825.09
2023-03-11T03:04:47.829Z,98821.49
2023-03-11T03:07:15.485Z,98817.92
2023-03-11T03:09:42.433Z,98812.41
2023-03-11T03:12:10.398Z,98810.21
2023-03-11T03:14:39.216Z,98806.80
2023-03-11T03:17:06.463Z,98797.81
2023-03-11T03:19:33.369Z,98794.30
2023-03-11T03:22:03.361Z,98796.08
2023-03-11T03:24:30.221Z,98796.45
2023-03-11T03:26:58.118Z,98791.45
2023-03-11T03:29:25.293Z,98786.23
2023-03-11T03:31:52.283Z,98778.39
2023-03-11T03:34:19.365Z,98775.95
2023-03-11T03:36:46.336Z,98770.97
2023-03-11T03:39:14.012Z,98772.86
2023-03-11T03:41:41.842Z,98769.79
2023-03-11T03:44:08.887Z,98764.17
2023-03-11T03:46:37.984Z,98759.11
2023-03-11T03:49:05.440Z,98754.77
2023-03-11T03:51:36.571Z,98742.90
2023-03-11T03:54:23.688Z,98738.51
2023-03-11T03:56:52.805Z,98737.56
2023-03-11T03:59:20.578Z,98732.30
2023-03-11T04:01:52.948Z,98728.93
2023-03-11T04:04:20.435Z,98728.82
2023-03-11T04:06:47.649Z,98724.27
2023-03-11T04:09:14.486Z,98718.98
2023-03-11T04:11:43.694Z,98710.61
2023-03-11T04:14:12.893Z,98708.22
2023-03-11T04:16:46.326Z,98702.45
2023-03-11T04:19:13.849Z,98701.48
2023-03-11T04:21:40.799Z,98697.08
2023-03-11T04:24:09.241Z,98695.59
2023-03-11T04:26:37.082Z,98694.16
2023-03-11T04:29:04.701Z,98689.64
2023-03-11T04:31:34.410Z,98687.79
2023-03-11T04:34:08.021Z,98686.10
2023-03-11T04:36:37.311Z,98687.16
2023-03-11T04:39:04.868Z,98688.76
2023-03-11T04:41:37.757Z,98685.77
2023-03-11T04:44:05.624Z,98683.05
2023-03-11T04:46:32.623Z,98676.75
2023-03-11T04:49:00.026Z,98674.09
2023-03-11T04:51:27.383Z,98672.95
2023-03-11T04:53:54.817Z,98664.73
2023-03-11T04:56:21.987Z,98659.35
2023-03-11T04:58:51.155Z,98651.71
2023-03-11T05:01:18.589Z,98644.37
2023-03-11T05:03:46.307Z,98642.59
2023-03-11T05:06:13.660Z,98640.95
2023-03-11T05:08:43.526Z,98636.17
2023-03-11T05:11:11.613Z,98634.20
2023-03-11T05:13:41.697Z,98627.82
2023-03-11T05:16:08.757Z,98629.48
2023-03-11T05:18:37.058Z,98626.02
2023-03-11T05:21:05.367Z,98618.27
2023-03-11T05:23:32.830Z,98610.04
2023-03-11T05:26:00.699Z,98610.86
2023-03-11T05:28:28.866Z,98608.09
2023-03-11T05:30:56.458Z,98602.29
2023-03-11T05:33:25.083Z,98600.27
2023-03-11T05:35:53.232Z,98597.72
2023-03-11T05:38:20.453Z,98596.97
2023-03-11T05:40:47.802Z,98595.03
2023-03-11T05:43:14.699Z,98589.91
2023-03-11T05:45:41.979Z,98581.48
2023-03-11T05:48:09.484Z,98584.20
2023-03-11T05:50:37.530Z,98585.90
2023-03-11T05:53:05.398Z,98585.52
2023-03-11T05:55:32.444Z,98582.58
2023-03-11T05:58:00.406Z,98582.52
2023-03-11T06:00:28.930Z,98582.02
2023-03-11T06:03:17.135Z,98580.66
2023-03-11T06:05:48.441Z,98578.98
2023-03-11T06:08:16.048Z,98580.29
2023-03-11T06:10:43.127Z,98582.20
2023-03-11T06:13:10.221Z,98583.89
2023-03-11T06:15:46.710Z,98579.42
2023-03-11T06:18:13.976Z,98575.76
2023-03-11T06:20:44.077Z,98578.24
2023-03-11T06:23:11.862Z,98572.98
2023-03-11T06:25:38.897Z,98568.80
2023-03-11T06:28:07.356Z,98561.98
2023-03-11T06:30:34.630Z,98561.26
2023-03-11T06:33:08.172Z,98557.97
2023-03-11T06:35:36.439Z,98549.48
2023-03-11T06:38:03.359Z,98546.51
2023-03-11T06:40:33.676Z,98543.16
2023-03-11T06:43:00.935Z,98545.71
2023-03-11T06:45:30.792Z,98541.17
2023-03-11T06:47:57.996Z,98536.67
2023-03-11T06:50:29.789Z,98528.10
2023-03-11T06:52:57.627Z,98525.16
2023-03-11T06:55:24.465Z,98522.80
2023-03-11T06:57:52.330Z,98519.34
2023-03-11T07:00:19.294Z,98511.52
2023-03-11T07:02:51.441Z,98510.41
2023-03-11T07:05:18.909Z,98510.84
2023-03-11T07:07:47.385Z,98508.18
2023-03-11T07:10:20.327Z,98505.55
2023-03-11T07:12:48.041Z,98502.38
2023-03-11T07:15:15.381Z,98503.28
2023-03-11T07:17:44.941Z,98496.39
2023-03-11T07:20:12.588Z,98491.99
2023-03-11T07:22:39.400Z,98479.87
2023-03-11T07:25:06.885Z,98475.94
2023-03-11T07:27:33.910Z,98471.45
2023-03-11T07:30:01.877Z,98472.31
2023-03-11T07:32:31.008Z,98465.01
2023-03-11T07:34:57.933Z,98460.02
2023-03-11T07:37:28.242Z,98456.20
2023-03-11T07:39:55.922Z,98448.52
2023-03-11T07:42:22.748Z,98439.17
2023-03-11T07:44:51.304Z,98436.27
2023-03-11T07:47:18.586Z,98429.51
2023-03-11T07:49:47.583Z,98420.13
2023-03-11T07:52:14.516Z,98413.30
2023-03-11T07:54:41.471Z,98404.38
2023-03-11T07:57:12.511Z,98403.01
2023-03-11T07:59:39.457Z,98393.48
2023-03-11T08:02:09.464Z,98380.35
2023-03-11T08:04:36.448Z,98369.44
2023-03-11T08:07:03.466Z,98359.65
2023-03-11T08:09:30.519Z,98369.49
2023-03-11T08:11:59.157Z,98366.48
2023-03-11T08:14:26.966Z,98361.05
2023-03-11T08:16:56.789Z,98356.36
2023-03-11T08:19:23.623Z,98347.29
2023-03-11T08:21:50.374Z,98339.77
2023-03-11T08:24:17.718Z,98335.02
2023-03-11T08:26:45.283Z,98332.33
2023-03-11T08:29:16.222Z,98338.43
2023-03-11T08:31:43.037Z,98339.39
2023-03-11T08:34:10.677Z,98334.08
2023-03-11T08:36:37.980Z,98343.48
2023-03-11T08:39:05.001Z,98339.97
2023-03-11T08:41:32.075Z,98335.91
2023-03-11T08:43:59.337Z,98336.11
2023-03-11T08:46:28.847Z,98333.09
2023-03-11T08:48:56.015Z,98330.99
2023-03-11T08:51:23.308Z,98323.09
2023-03-11T08:53:50.860Z,98318.54
2023-03-11T08:56:18.251Z,98315.55
2023-03-11T08:58:45.148Z,98318.39
2023-03-11T09:01:12.475Z,98320.38
2023-03-11T09:03:39.522Z,98317.95
2023-03-11T09:06:08.482Z,98313.80
2023-03-11T09:08:36.568Z,98302.91
2023-03-11T09:11:03.542Z,98298.68
2023-03-11T09:13:32.475Z,98292.98
2023-03-11T09:15:59.587Z,98292.64
2023-03-11T09:18:27.963Z,98291.33
2023-03-11T09:21:01.187Z,98292.70
2023-03-11T09:23:29.500Z,98292.81
2023-03-11T09:25:56.345Z,98292.20
2023-03-11T09:28:23.391Z,98284.68
2023-03-11T09:30:50.149Z,98281.20
2023-03-11T09:33:22.607Z,98273.37
2023-03-11T09:35:51.925Z,98262.27
2023-03-11T09:38:18.907Z,98255.51
2023-03-11T09:41:13.177Z,98251.83
2023-03-11T09:44:08.698Z,98243.02
2023-03-11T09:46:46.125Z,98241.35
2023-03-11T09:49:37.280Z,98233.42
2023-03-11T09:53:19.793Z,98219.89
2023-03-11T09:55:53.397Z,98213.44
2023-03-11T09:58:36.201Z,98213.52
2023-03-11T10:01:11.968Z,98215.44
2023-03-11T10:03:40.132Z,98213.23
2023-03-11T10:06:14.410Z,98208.38
2023-03-11T10:08:46.428Z,98199.80
2023-03-11T10:11:44.907Z,98192.51
2023-03-11T10:14:32.264Z,98193.22
2023-03-11T10:17:26.605Z,98192.92
2023-03-11T10:20:13.278Z,98190.98
2023-03-11T10:22:48.141Z,98190.63
2023-03-11T10:25:25.886Z,98187.19
2023-03-11T10:27:57.541Z,98177.66
2023-03-11T10:30:29.307Z,98168.65
2023-03-11T10:33:12.919Z,98161.22
2023-03-11T10:35:46.350Z,98154.84
2023-03-11T10:38:33.322Z,98150.67
2023-03-11T10:41:05.368Z,98146.58
2023-03-11T10:43:45.948Z,98143.10
2023-03-11T10:46:23.706Z,98139.44
2023-03-11T10:48:52.019Z,98134.65
2023-03-11T10:51:28.495Z,98134.25
2023-03-11T10:53:58.198Z,98127.41
2023-03-11T10:56:30.668Z,98119.73
2023-03-11T10:58:59.764Z,98113.21
2023-03-11T11:01:29.083Z,98105.36
2023-03-11T11:04:00.990Z,98096.98
2023-03-11T11:06:32.790Z,98093.01
2023-03-11T11:09:18.473Z,98084.20
2023-03-11T11:12:03.550Z,98075.22
2023-03-11T11:14:48.372Z,98073.89
2023-03-11T11:17:33.584Z,98069.52
2023-03-11T11:20:13.448Z,98067.45
2023-03-11T11:22:48.367Z,98053.77
2023-03-11T11:25:36.728Z,98043.63
2023-03-11T11:28:18.520Z,98038.16
2023-03-11T11:30:55.201Z,98037.09
2023-03-11T11:33:39.779Z,98036.09
2023-03-11T11:36:13.796Z,98033.48
2023-03-11T11:38:41.874Z,98030.84
2023-03-11T11:41:14.902Z,98028.34
2023-03-11T11:43:55.166Z,98026.58
2023-03-11T11:46:34.599Z,98022.36
2023-03-11T11:49:21.392Z,98024.86
2023-03-11T11:51:51.537Z,98018.54
2023-03-11T11:54:39.081Z,98013.77
2023-03-11T11:57:15.227Z,98010.27
2023-03-11T11:59:43.969Z,98007.20
2023-03-11T12:02:51.867Z,98002.36
2023-03-11T12:05:29.913Z,98002.52
2023-03-11T12:08:14.531Z,98001.81
2023-03-11T12:11:07.525Z,98002.88
2023-03-11T12:13:48.004Z,98001.67
2023-03-11T12:16:30.318Z,97996.77
2023-03-11T12:19:10.574Z,97996.64
2023-03-11T12:21:46.122Z,97992.50
2023-03-11T12:24:21.046Z,97994.14
2023-03-11T12:26:49.727Z,97991.30
2023-03-11T12:29:34.434Z,97992.80
2023-03-11T12:32:02.772Z,97989.72
2023-03-11T12:34:31.563Z,97989.46
2023-03-11T12:37:03.538Z,97986.39
2023-03-11T12:39:35.285Z,97986.20
2023-03-11T12:42:23.326Z,97980.24
2023-03-11T12:44:51.597Z,97977.05
2023-03-11T12:47:25.078Z,97976.90
2023-03-11T12:50:13.015Z,97973.22
2023-03-11T12:52:54.326Z,97972.70
2023-03-11T12:55:30.913Z,97964.44
2023-03-11T12:58:04.872Z,97964.27
2023-03-11T13:01:01.053Z,97957.71
2023-03-11T13:04:25.225Z,97952.67
2023-03-11T13:07:40.574Z,97948.10
2023-03-11T13:10:43.769Z,97944.60
2023-03-11T13:13:33.820Z,97941.86
2023-03-11T13:16:14.628Z,97940.27
2023-03-11T13:18:46.951Z,97935.59
2023-03-11T13:21:27.517Z,97927.71
2023-03-11T13:24:27.222Z,97921.09
2023-03-11T13:27:07.478Z,97918.90
2023-03-11T13:30:01.915Z,97918.02
2023-03-11T13:32:53.733Z,97915.30
2023-03-11T13:35:28.167Z,97916.08
2023-03-11T13:38:31.630Z,97913.48
2023-03-11T13:41:01.016Z,97909.41
2023-03-11T13:43:30.012Z,97906.52
2023-03-11T13:46:02.137Z,97901.66
2023-03-11T13:48:36.062Z,97903.56
2023-03-11T13:51:08.159Z,97905.84
2023-03-11T13:53:47.493Z,97900.63
2023-03-11T13:56:23.038Z,97900.20
2023-03-11T13:58:51.109Z,97898.53
2023-03-11T14:01:21.553Z,97895.98
2023-03-11T14:03:53.413Z,97894.73
2023-03-11T14:06:21.572Z,97891.95
2023-03-11T14:08:57.632Z,97889.63
2023-03-11T14:11:29.193Z,97894.30
2023-03-11T14:13:57.768Z,97891.95
2023-03-11T14:16:29.773Z,97890.38
2023-03-11T14:19:08.912Z,97892.41
2023-03-11T14:21:37.595Z,97891.55
2023-03-11T14:24:06.524Z,97892.40
2023-03-11T14:26:35.741Z,97890.35
2023-03-11T14:29:09.921Z,97890.54
2023-03-11T14:31:41.253Z,97888.02
2023-03-11T14:34:09.994Z,97888.10
2023-03-11T14:36:48.651Z,97886.41
2023-03-11T14:39:22.730Z,97883.90
2023-03-11T14:41:52.127Z,97882.80
2023-03-11T14:44:23.072Z,97880.83
2023-03-11T14:46:51.339Z,97877.01
2023-03-11T14:49:25.456Z,97876.48
2023-03-11T14:51:59.733Z,97877.95
2023-03-11T14:54:30.200Z,97877.06
2023-03-11T14:57:23.969Z,97873.90
2023-03-11T14:59:52.655Z,97873.14
2023-03-11T15:02:46.020Z,97871.38
2023-03-11T15:05:55.670Z,97865.94
2023-03-11T15:08:27.835Z,97860.75
2023-03-11T15:11:11.320Z,97858.58
2023-03-11T15:13:41.075Z,97862.23
2023-03-11T15:16:29.867Z,97857.08
2023-03-11T15:19:00.573Z,97859.09
2023-03-11T15:21:28.746Z,97858.19
2023-03-11T15:24:02.349Z,97858.84
2023-03-11T15:26:32.470Z,97861.56
2023-03-11T15:29:13.245Z,97866.08
2023-03-11T15:31:45.071Z,97873.18
2023-03-11T15:34:16.668Z,97872.44
2023-03-11T15:36:55.696Z,97876.08
2023-03-11T15:39:32.807Z,97876.90
2023-03-11T15:42:07.446Z,97878.77
2023-03-11T15:44:48.786Z,97877.52
2023-03-11T15:47:22.484Z,97876.26
2023-03-11T15:49:50.966Z,97879.36
2023-03-11T15:52:22.211Z,97876.84
2023-03-11T15:54:55.799Z,97880.45
2023-03-11T15:57:26.487Z,97876.13
2023-03-11T15:59:56.676Z,97876.77
2023-03-11T16:02:27.721Z,97877.61
2023-03-11T16:04:56.533Z,97876.96
2023-03-11T16:07:38.723Z,97877.77
2023-03-11T16:10:08.517Z,97875.23
2023-03-11T16:12:45.592Z,97877.98
2023-03-11T16:15:26.674Z,97874.52
2023-03-11T16:17:58.649Z,97872.91
2023-03-11T16:20:31.883Z,97871.59
2023-03-11T16:23:01.942Z,97873.23
2023-03-11T16:25:35.032Z,97877.48
2023-03-11T16:28:03.654Z,97887.11
2023-03-11T16:30:33.411Z,97890.76
2023-03-11T16:33:04.595Z,97888.02
2023-03-11T16:35:33.535Z,97884.48
2023-03-11T16:38:04.510Z,97880.91
2023-03-11T16:40:33.504Z,97879.11
2023-03-11T16:43:04.653Z,97876.47
2023-03-11T16:45:33.418Z,97874.73
2023-03-11T16:48:01.714Z,97873.13
2023-03-11T16:50:32.985Z,97872.11
2023-03-11T16:53:03.799Z,97872.54
2023-03-11T16:55:32.074Z,97874.74
2023-03-11T16:58:00.760Z,97877.15
2023-03-11T17:00:29.156Z,97876.30
2023-03-11T17:02:58.341Z,97874.45
2023-03-11T17:05:26.829Z,97872.35
2023-03-11T17:08:00.123Z,97870.21
2023-03-11T17:10:28.403Z,97870.04
2023-03-11T17:12:56.978Z,97868.41
2023-03-11T17:15:26.897Z,97864.19
2023-03-11T17:17:55.733Z,97863.39
2023-03-11T17:20:24.280Z,97862.73
2023-03-11T17:22:52.647Z,97862.83
2023-03-11T17:25:26.208Z,97862.05
2023-03-11T17:27:55.599Z,97857.73
2023-03-11T17:30:36.462Z,97861.51
2023-03-11T17:33:05.829Z,97859.86
2023-03-11T17:35:34.981Z,97861.59
2023-03-11T17:38:03.030Z,97861.36
2023-03-11T17:40:33.111Z,97861.25
2023-03-11T17:43:01.492Z,97859.91
2023-03-11T17:45:29.974Z,97857.98
2023-03-11T17:47:58.557Z,97852.85
2023-03-11T17:50:26.763Z,97850.42
2023-03-11T17:52:56.630Z,97836.42
2023-03-11T17:55:24.928Z,97829.17
2023-03-11T17:57:53.631Z,97830.77
2023-03-11T18:00:22.409Z,97832.96
2023-03-11T18:02:51.799Z,97835.86
2023-03-11T18:05:20.483Z,97841.55
2023-03-11T18:07:48.557Z,97838.20
2023-03-11T18:10:17.139Z,97832.71
2023-03-11T18:12:46.233Z,97833.49
2023-03-11T18:15:19.374Z,97837.06
2023-03-11T18:17:48.825Z,97835.73
2023-03-11T18:20:17.405Z,97834.94
2023-03-11T18:22:46.934Z,97832.28
2023-03-11T18:25:15.535Z,97826.86
2023-03-11T18:27:44.136Z,97825.68
2023-03-11T18:30:13.398Z,97827.77
2023-03-11T18:33:01.400Z,97823.49
2023-03-11T18:35:30.363Z,97818.85
2023-03-11T18:37:59.114Z,97811.84
2023-03-11T18:40:28.204Z,97805.34
2023-03-11T18:42:57.300Z,97809.46
2023-03-11T18:45:25.421Z,97813.95
2023-03-11T18:47:54.847Z,97818.45
2023-03-11T18:50:30.934Z,97817.15
2023-03-11T18:53:00.053Z,97815.19
2023-03-11T18:55:28.304Z,97818.48
2023-03-11T18:57:56.996Z,97826.52
2023-03-11T19:00:25.172Z,97829.12
2023-03-11T19:02:54.164Z,97835.39
2023-03-11T19:05:23.467Z,97841.94
2023-03-11T19:07:51.646Z,97847.49
2023-03-11T19:10:22.889Z,97850.42
2023-03-11T19:12:51.994Z,97852.45
2023-03-11T19:15:20.317Z,97853.11
2023-03-11T19:18:00.593Z,97858.84
2023-03-11T19:20:35.354Z,97862.30
2023-03-11T19:23:03.535Z,97859.63
2023-03-11T19:25:33.050Z,97855.50
2023-03-11T19:28:01.750Z,97854.33
2023-03-11T19:30:30.156Z,97852.59
2023-03-11T19:32:59.168Z,97852.32
2023-03-11T19:35:27.677Z,97850.33
2023-03-11T19:37:59.352Z,97849.76
2023-03-11T19:40:30.379Z,97844.13
2023-03-11T19:42:59.430Z,97844.54
2023-03-11T19:45:31.885Z,97842.91
2023-03-11T19:48:00.772Z,97844.11
2023-03-11T19:50:34.747Z,97840.02
2023-03-11T19:53:03.093Z,97841.63
2023-03-11T19:55:31.356Z,97841.92
2023-03-11T19:58:00.720Z,97839.59
2023-03-11T20:00:30.636Z,97839.64
2023-03-11T20:03:03.742Z,97842.02
2023-03-11T20:05:31.988Z,97841.92
2023-03-11T20:08:00.695Z,97842.59
2023-03-11T20:10:29.869Z,97845.41
2023-03-11T20:13:02.450Z,97844.17
2023-03-11T20:15:31.244Z,97845.89
2023-03-11T20:18:05.662Z,97846.00
2023-03-11T20:20:34.882Z,97850.15
2023-03-11T20:23:03.934Z,97848.89
2023-03-11T20:25:40.458Z,97851.83
2023-03-11T20:28:08.797Z,97853.40
2023-03-11T20:30:37.756Z,97848.89
2023-03-11T20:33:06.848Z,97847.05
2023-03-11T20:35:35.307Z,97844.62
2023-03-11T20:38:03.641Z,97848.50
2023-03-11T20:40:32.608Z,97851.77
2023-03-11T20:43:03.078Z,97854.24
2023-03-11T20:45:33.493Z,97856.84
2023-03-11T20:48:02.236Z,97857.25
2023-03-11T20:50:30.805Z,97857.21
2023-03-11T20:52:59.216Z,97850.65
2023-03-11T20:55:27.466Z,97855.83
2023-03-11T20:57:55.587Z,97861.84
2023-03-11T21:00:29.045Z,97862.69
2023-03-11T21:02:57.315Z,97857.31
2023-03-11T21:05:25.634Z,97863.77
2023-03-11T21:07:54.777Z,97860.08
2023-03-11T21:10:24.206Z,97862.58
2023-03-11T21:12:54.278Z,97863.81
2023-03-11T21:15:26.115Z,97863.48
2023-03-11T21:17:55.435Z,97859.73
2023-03-11T21:20:24.043Z,97861.64
2023-03-11T21:22:53.415Z,97856.83
2023-03-11T21:25:21.560Z,97860.81
2023-03-11T21:27:50.038Z,97859.19
2023-03-11T21:30:22.974Z,97858.56
2023-03-11T21:32:51.747Z,97853.02
2023-03-11T21:35:19.976Z,97851.41
2023-03-11T21:37:48.717Z,97855.98
2023-03-11T21:40:17.497Z,97854.36
2023-03-11T21:42:45.605Z,97862.78
2023-03-11T21:45:15.074Z,97869.34
2023-03-11T21:47:43.480Z,97875.73
2023-03-11T21:50:12.938Z,97882.66
2023-03-11T21:52:41.291Z,97891.86
2023-03-11T21:55:10.996Z,97894.69
2023-03-11T21:57:40.170Z,97901.98
2023-03-11T22:00:10.673Z,97903.51
2023-03-11T22:02:39.013Z,97906.54
2023-03-11T22:05:08.158Z,97900.00
2023-03-11T22:07:36.806Z,97889.42
2023-03-11T22:10:56.139Z,97906.34
2023-03-11T22:13:25.616Z,97906.96
2023-03-11T22:15:54.039Z,97902.01
2023-03-11T22:18:36.408Z,97901.13
2023-03-11T22:21:05.224Z,97912.81
2023-03-11T22:23:34.489Z,97919.39
2023-03-11T22:26:05.231Z,97913.27
2023-03-11T22:28:35.077Z,97922.84
2023-03-11T22:31:07.680Z,97928.14
2023-03-11T22:33:38.249Z,97923.14
2023-03-11T22:36:07.919Z,97932.63
2023-03-11T22:38:44.426Z,97939.47
2023-03-11T22:41:13.216Z,97945.85
2023-03-11T22:43:41.603Z,97946.11
2023-03-11T22:46:10.268Z,97955.33
2023-03-11T22:48:38.568Z,97950.45
2023-03-11T22:51:06.943Z,97951.92
2023-03-11T22:53:36.734Z,97963.17
2023-03-11T22:56:13.551Z,97965.89
2023-03-11T22:58:42.790Z,97966.20
2023-03-11T23:01:11.525Z,97976.86
2023-03-11T23:03:40.103Z,97972.87
2023-03-11T23:06:09.204Z,97967.92
2023-03-11T23:08:37.418Z,97973.93
2023-03-11T23:11:08.124Z,97971.33
2023-03-11T23:13:36.689Z,97969.04
2023-03-11T23:16:13.772Z,97969.69
2023-03-11T23:18:53.722Z,97975.46
2023-03-11T23:21:23.234Z,97977.23
2023-03-11T23:23:51.511Z,97981.98
2023-03-11T23:26:20.416Z,97975.72
2023-03-11T23:28:51.161Z,97973.33
2023-03-11T23:31:20.090Z,97978.08
2023-03-11T23:33:49.427Z,97980.83
2023-03-11T23:36:19.244Z,97976.30
2023-03-11T23:38:47.643Z,97975.23
2023-03-11T23:41:24.060Z,97973.21
2023-03-11T23:43:52.267Z,97965.04
2023-03-11T23:46:21.167Z,97975.46
2023-03-11T23:48:49.640Z,97987.65
2023-03-11T23:51:17.924Z,97988.54
2023-03-11T23:53:47.015Z,97981.88
2023-03-11T23:56:17.359Z,97987.91
2023-03-11T23:58:46.169Z,97991.31
